Detall de PIREP

Printer-friendly versionPDF version

[2013/09/22 08:57:00]
Flight IATA:CT3109
Pilot Number:012
Company ICAO:CAT
Aircraft Type:AT72/F
PAX:56
Departing Airport: LEZG
Destination Airport: LIEA
Alternate Airport:LIEO
Online: VATSIM
Route:PONEN R870 BCN N725 OSPOK/N0230F180 N725 ORKUM M603 ELSAG
Flight Level:F240
No Slew and time accel
No pause
Crash detect
Detect pilot in Cockpit between each 30 and 45 minutes
08:57 Zero fuel Weight: 40372 Lbs, Fuel Weight: 4686 Lbs
08:57 VATSIM:LEZG 220830Z 32003KT 280V010 CAVOK 18/09 Q1025
08:57 VATSIM:LIEA 220820Z 06006KT CAVOK 23/18 Q1023
08:57 VOICE CATALONIAN
08:57 Parking Brakes off
09:00 Take-off
09:00 Take off Weight: 45021 Lbs
09:00 Wind: 319º @ 003 Knots Heading: 298º
09:00 POS N41º 39´ 38´´ W001º 01´ 12´´
09:00 Gear Up: 120 Knots
09:00 Flaps:1 at 120 Knots
09:01 Flaps:0 at 170 Knots
09:15 Wind:090º@021 Knots Heading: 112º Ground Speed: 223 Knots Altitude 19990 ft
09:27 TOC
09:27 Fuel Weight: 3881 Lb
09:30 Wind:064º@017 Knots Heading: 089º Ground Speed: 256 Knots Altitude 24327 ft
09:45 Wind:062º@028 Knots Heading: 098º Ground Speed: 256 Knots Altitude 24350 ft
10:00 Wind:045º@027 Knots Heading: 098º Ground Speed: 263 Knots Altitude 24343 ft
10:15 Wind:046º@021 Knots Heading: 093º Ground Speed: 265 Knots Altitude 24330 ft
10:30 Wind:037º@028 Knots Heading: 092º Ground Speed: 264 Knots Altitude 24284 ft
10:35 TOD
10:35 Fuel Weight: 2172 Lb
10:45 Wind:046º@010 Knots Heading: 080º Ground Speed: 250 Knots Altitude 9760 ft
10:54 Flaps:1 at 168 Knots
10:54 Gear Down: 144 Knots
10:55 Flaps:2 at 157 Knots
10:57 TouchDown:Rate -73 ft/min Speed: 105 Knots
10:58 VATSIM:LIEA 221050Z 03006KT 350V090 CAVOK 27/15 Q1022
10:58 Land
10:58 Wind:358º@003 Knots
10:58 Heading: 205º
10:58 Flight Duration: 01:58
10:58 Landing Weight: 42239 Lbs
10:58 POS N40º 37´ 55´´ E008º 17´ 26´´
11:01 Parking brakes on
11:01 Block to Block Duration: 02:04
11:01 Final Fuel: 1847 Lbls
11:01 Spent Fuel: 2839 Lbls
11:01 Flight Length: 483 NM
11:01 TOD Land Length: 86 NM

Exportar CSV

Powered by Drupal - Modified by Danger4k